Time;durP1;ratioP1;P1;durP2;ratioP2;P2;SDS_P1;SDS_P2;PMS_P1;PMS_P2;Temp;Humidity;BMP_temperature;BMP_pressure;BME280_temperature;BME280_humidity;BME280_pressure;Samples;Min_cycle;Max_cycle;Signal;HPM_P1;HPM_P2
2022/03/22 00:00:36;;;;;;;14.70;12.97;;;6.00;69.60;;;;;;5014564;28;20445;-67
2022/03/22 00:03:04;;;;;;;16.93;14.17;;;6.00;70.90;;;;;;5014445;28;20454;-68
2022/03/22 00:05:30;;;;;;;17.07;13.27;;;6.00;69.30;;;;;;5012107;28;20593;-67
2022/03/22 00:07:56;;;;;;;19.10;14.10;;;5.90;70.50;;;;;;5011023;28;20437;-69
2022/03/22 00:10:22;;;;;;;15.00;12.53;;;5.90;71.70;;;;;;5014268;28;20507;-67
2022/03/22 00:12:49;;;;;;;15.50;13.30;;;5.90;71.10;;;;;;5014295;28;20661;-68
2022/03/22 00:15:15;;;;;;;14.13;12.20;;;5.90;70.90;;;;;;5014441;28;20258;-68
2022/03/22 00:17:41;;;;;;;15.67;13.93;;;5.80;71.30;;;;;;5014427;28;20476;-70
2022/03/22 00:20:10;;;;;;;16.03;13.27;;;5.80;70.90;;;;;;5014516;28;20438;-68
2022/03/22 00:22:37;;;;;;;19.37;15.60;;;5.80;72.60;;;;;;5014231;28;20198;-69
2022/03/22 00:25:04;;;;;;;18.73;14.40;;;5.80;72.50;;;;;;5014205;28;20445;-66
2022/03/22 00:27:50;;;;;;;21.63;13.00;;;5.70;71.30;;;;;;5001669;28;20431;-67
2022/03/22 00:30:17;;;;;;;15.20;13.30;;;5.70;71.10;;;;;;5013980;28;20441;-67
2022/03/22 00:32:43;;;;;;;23.60;14.10;;;5.70;73.20;;;;;;5004152;28;20441;-68
2022/03/22 00:35:08;;;;;;;19.20;13.47;;;5.70;73.60;;;;;;5007682;28;20434;-69
2022/03/22 00:37:37;;;;;;;18.17;14.57;;;5.70;72.10;;;;;;5010200;28;20575;-67
2022/03/22 00:40:07;;;;;;;16.27;14.37;;;5.60;75.20;;;;;;5002853;28;20190;-68
2022/03/22 00:42:32;;;;;;;15.20;13.60;;;5.60;76.50;;;;;;5013692;28;20666;-67
2022/03/22 00:44:58;;;;;;;15.37;12.67;;;5.60;76.20;;;;;;5013576;28;20941;-68
2022/03/22 00:47:24;;;;;;;16.50;14.03;;;5.60;74.40;;;;;;5010233;28;20559;-68
2022/03/22 00:49:49;;;;;;;17.20;13.40;;;5.60;75.90;;;;;;5013602;28;20195;-67
2022/03/22 00:52:15;;;;;;;19.93;14.33;;;5.60;76.10;;;;;;5013756;28;20207;-68
2022/03/22 00:54:40;;;;;;;18.20;14.17;;;5.50;79.70;;;;;;5013514;28;20171;-68
2022/03/22 00:57:06;;;;;;;14.43;12.87;;;5.40;80.80;;;;;;5013306;28;20254;-68
2022/03/22 01:02:16;;;;;;;16.90;13.93;;;5.30;81.40;;;;;;5013489;28;20213;-66
2022/03/22 01:04:43;;;;;;;15.33;13.50;;;5.30;82.60;;;;;;5013544;28;20823;-68
2022/03/22 01:07:08;;;;;;;18.13;15.10;;;5.20;83.10;;;;;;5013285;28;20661;-67
2022/03/22 01:09:34;;;;;;;15.27;13.00;;;5.20;82.90;;;;;;5013405;28;20437;-68
2022/03/22 01:11:59;;;;;;;16.60;13.90;;;5.20;82.30;;;;;;5013260;28;20267;-71
2022/03/22 01:14:27;;;;;;;16.80;13.83;;;5.10;85.00;;;;;;5013612;28;20206;-68
2022/03/22 01:16:53;;;;;;;15.13;13.30;;;5.10;86.10;;;;;;5003132;28;20254;-67
2022/03/22 01:19:21;;;;;;;17.57;15.63;;;5.10;83.90;;;;;;5012812;28;20434;-68
2022/03/22 01:21:47;;;;;;;16.37;13.77;;;5.10;85.30;;;;;;4994902;28;20435;-68
2022/03/22 01:24:13;;;;;;;16.50;13.97;;;5.00;85.30;;;;;;5009903;28;20433;-68
2022/03/22 01:26:40;;;;;;;21.53;16.83;;;5.00;84.50;;;;;;5015465;28;20445;-71
2022/03/22 01:29:06;;;;;;;17.03;15.23;;;4.90;84.70;;;;;;5010067;28;20210;-68
2022/03/22 01:31:32;;;;;;;16.60;13.53;;;5.00;85.10;;;;;;5022968;28;20894;-68
2022/03/22 01:33:57;;;;;;;18.90;15.00;;;5.00;86.90;;;;;;5008485;28;20556;-68
2022/03/22 01:36:23;;;;;;;17.53;15.40;;;5.00;86.40;;;;;;5014453;28;20171;-67
2022/03/22 01:38:48;;;;;;;18.20;13.93;;;4.90;86.50;;;;;;5007831;28;20594;-67
2022/03/22 01:41:14;;;;;;;18.60;13.93;;;4.90;86.80;;;;;;4992094;28;20611;-68
2022/03/22 01:43:40;;;;;;;18.67;14.27;;;4.80;86.30;;;;;;5009636;28;20189;-68
2022/03/22 01:46:05;;;;;;;17.07;13.93;;;4.80;86.50;;;;;;5011810;28;20277;-67
2022/03/22 01:48:31;;;;;;;20.17;15.27;;;4.80;88.20;;;;;;5012047;28;20171;-68
2022/03/22 01:50:57;;;;;;;24.07;15.13;;;4.80;87.90;;;;;;5002066;28;20203;-68
2022/03/22 01:53:23;;;;;;;18.73;15.67;;;4.80;90.00;;;;;;5009360;28;21046;-67
2022/03/22 01:55:48;;;;;;;21.73;15.87;;;4.70;90.40;;;;;;5013390;28;20186;-68
2022/03/22 01:58:14;;;;;;;22.00;16.20;;;4.60;90.10;;;;;;5012120;28;20654;-68
2022/03/22 02:00:40;;;;;;;17.03;13.47;;;4.50;90.50;;;;;;5022454;28;20190;-70
2022/03/22 02:05:51;;;;;;;17.93;15.30;;;4.50;91.60;;;;;;5012295;28;20209;-68
2022/03/22 02:08:18;;;;;;;19.50;16.40;;;4.50;92.00;;;;;;4996933;28;20485;-68
2022/03/22 02:10:44;;;;;;;21.87;16.00;;;4.40;92.30;;;;;;4994732;28;20788;-67
2022/03/22 02:13:10;;;;;;;19.13;15.03;;;4.40;93.20;;;;;;5012268;28;20516;-67
2022/03/22 02:15:36;;;;;;;16.97;15.00;;;4.50;92.90;;;;;;5012256;28;20845;-68
2022/03/22 02:18:02;;;;;;;19.53;15.23;;;4.50;93.00;;;;;;5012233;28;20422;-68
2022/03/22 02:20:28;;;;;;;20.27;15.30;;;4.40;93.00;;;;;;5012212;28;20226;-68
2022/03/22 02:23:08;;;;;;;17.90;14.27;;;4.40;92.70;;;;;;5012418;28;20171;-67
2022/03/22 02:25:35;;;;;;;19.80;16.50;;;4.40;93.70;;;;;;5012208;28;20976;-68
2022/03/22 02:28:02;;;;;;;18.77;15.37;;;4.40;94.40;;;;;;4998937;28;20813;-67
2022/03/22 02:30:28;;;;;;;21.40;15.57;;;4.30;93.60;;;;;;5009957;28;20461;-67
2022/03/22 02:32:55;;;;;;;18.13;13.93;;;4.40;93.90;;;;;;5011965;28;20983;-66
2022/03/22 02:35:22;;;;;;;19.53;15.83;;;4.30;94.60;;;;;;5018060;28;20170;-69
2022/03/22 02:37:48;;;;;;;22.40;16.00;;;4.30;94.10;;;;;;5011851;28;20537;-65
2022/03/22 02:40:15;;;;;;;25.93;16.47;;;4.30;94.80;;;;;;5003937;28;20457;-67
2022/03/22 02:42:49;;;;;;;19.03;14.87;;;4.30;95.10;;;;;;5016158;28;20418;-67
2022/03/22 02:45:15;;;;;;;19.10;14.97;;;4.30;95.50;;;;;;5015919;28;20444;-64
2022/03/22 02:47:42;;;;;;;18.10;14.17;;;4.20;96.30;;;;;;5014406;28;20437;-66
2022/03/22 02:50:08;;;;;;;18.93;14.60;;;4.20;96.60;;;;;;4996216;28;20435;-67
2022/03/22 02:52:35;;;;;;;15.60;13.93;;;4.20;96.00;;;;;;5001283;28;20453;-66
2022/03/22 02:55:01;;;;;;;16.73;14.23;;;4.10;95.80;;;;;;5012717;28;20925;-67
2022/03/22 02:57:27;;;;;;;17.60;14.43;;;4.20;95.50;;;;;;5015953;28;20513;-67
2022/03/22 02:59:52;;;;;;;18.20;13.73;;;4.20;96.50;;;;;;5025923;28;20987;-69
2022/03/22 03:02:18;;;;;;;18.33;13.57;;;4.20;95.70;;;;;;5020638;28;20266;-67
2022/03/22 03:04:43;;;;;;;16.50;14.50;;;4.20;97.20;;;;;;5019851;28;20175;-67
2022/03/22 03:07:09;;;;;;;17.87;14.67;;;4.20;97.50;;;;;;5013019;28;20673;-70
2022/03/22 03:09:34;;;;;;;19.17;14.03;;;4.20;97.50;;;;;;5000165;28;20199;-65
2022/03/22 03:12:00;;;;;;;18.93;13.47;;;4.10;97.90;;;;;;4997275;28;20167;-66
2022/03/22 03:14:41;;;;;;;15.87;13.90;;;4.10;97.60;;;;;;5021927;28;20574;-65
2022/03/22 03:17:08;;;;;;;17.63;13.90;;;4.10;98.10;;;;;;4999845;28;20608;-67
2022/03/22 03:19:34;;;;;;;17.77;13.80;;;4.10;98.00;;;;;;5015285;28;20524;-68
2022/03/22 03:22:00;;;;;;;18.70;15.37;;;4.10;97.40;;;;;;5020411;28;20515;-68
2022/03/22 03:24:25;;;;;;;16.43;13.10;;;4.10;97.20;;;;;;5017733;28;20174;-66
2022/03/22 03:26:51;;;;;;;21.60;14.47;;;4.20;97.10;;;;;;5018249;28;20171;-71
2022/03/22 03:29:16;;;;;;;19.03;15.33;;;4.20;97.10;;;;;;5015284;28;20214;-67
2022/03/22 03:31:42;;;;;;;18.00;14.60;;;4.20;97.80;;;;;;5015205;28;20692;-68
2022/03/22 03:34:08;;;;;;;19.77;15.07;;;4.20;97.60;;;;;;5015073;28;20195;-68
2022/03/22 03:36:34;;;;;;;19.33;14.77;;;4.20;97.20;;;;;;5015076;28;20935;-71
2022/03/22 03:39:01;;;;;;;23.40;15.43;;;4.20;97.40;;;;;;5013620;28;20207;-67
2022/03/22 03:47:04;;;;;;;22.40;14.83;;;4.20;99.20;;;;;;5015058;28;20894;-67
2022/03/22 03:49:34;;;;;;;24.03;15.73;;;4.10;99.40;;;;;;5014813;28;20491;-67
2022/03/22 03:51:59;;;;;;;26.80;15.73;;;4.10;99.00;;;;;;5012395;28;20452;-69
2022/03/22 03:54:25;;;;;;;19.47;15.10;;;4.10;99.60;;;;;;5010177;28;20516;-70
2022/03/22 03:56:50;;;;;;;19.13;14.50;;;4.00;99.30;;;;;;5014486;28;20643;-69
2022/03/22 03:59:16;;;;;;;18.37;14.73;;;4.00;99.20;;;;;;5013224;28;20256;-68
2022/03/22 04:01:43;;;;;;;17.20;14.90;;;3.90;99.90;;;;;;5012148;28;20284;-69
2022/03/22 04:04:08;;;;;;;18.63;13.93;;;3.90;99.90;;;;;;5007674;28;20337;-68
2022/03/22 04:06:34;;;;;;;19.73;15.87;;;3.90;99.70;;;;;;5011846;28;20525;-69
2022/03/22 04:08:59;;;;;;;18.83;14.30;;;3.90;99.50;;;;;;5012576;28;20252;-69
2022/03/22 04:11:25;;;;;;;23.30;16.40;;;3.80;99.60;;;;;;5010184;28;20572;-67
2022/03/22 04:13:50;;;;;;;21.13;14.90;;;3.80;99.60;;;;;;5011358;28;20222;-69
2022/03/22 04:16:16;;;;;;;20.40;14.40;;;3.90;99.30;;;;;;5012360;28;20175;-68
2022/03/22 04:18:41;;;;;;;19.90;15.60;;;3.90;99.20;;;;;;5011369;28;20261;-69
2022/03/22 04:21:07;;;;;;;18.50;14.17;;;3.90;99.60;;;;;;5011212;28;20689;-69
2022/03/22 04:23:33;;;;;;;24.47;15.07;;;3.90;99.30;;;;;;5005873;28;20224;-69
2022/03/22 04:25:58;;;;;;;20.57;14.63;;;3.90;99.50;;;;;;5010592;28;20190;-67
2022/03/22 04:33:54;;;;;;;21.17;16.07;;;3.90;99.90;;;;;;5012485;28;20545;-68
2022/03/22 04:36:19;;;;;;;20.50;15.80;;;3.90;99.90;;;;;;5010936;28;20487;-68
2022/03/22 04:38:45;;;;;;;24.13;15.77;;;3.90;99.90;;;;;;5013463;28;20457;-68
2022/03/22 04:41:11;;;;;;;21.33;15.43;;;3.80;99.90;;;;;;5010867;28;20182;-69
2022/03/22 04:43:37;;;;;;;16.37;13.87;;;3.80;99.90;;;;;;5011536;28;20175;-67
2022/03/22 04:46:02;;;;;;;21.73;16.60;;;3.80;99.90;;;;;;5011331;28;20442;-69
2022/03/22 04:48:29;;;;;;;16.17;14.47;;;3.70;99.90;;;;;;5010059;28;20214;-67
2022/03/22 04:56:43;;;;;;;25.10;15.20;;;3.70;99.90;;;;;;5012124;28;20197;-69
2022/03/22 04:56:43;;;;;;;19.57;15.03;;;3.60;99.90;;;;;;5004259;28;20508;-68
2022/03/22 04:59:10;;;;;;;22.10;15.60;;;3.60;99.90;;;;;;5005635;28;20460;-68
2022/03/22 05:01:36;;;;;;;21.23;14.90;;;3.50;99.90;;;;;;5010181;28;20524;-68
2022/03/22 05:04:01;;;;;;;20.13;15.90;;;3.40;99.90;;;;;;5009152;28;20491;-68
2022/03/22 05:06:27;;;;;;;24.13;16.80;;;3.40;99.90;;;;;;5010450;28;20863;-69
2022/03/22 05:08:55;;;;;;;23.87;18.27;;;3.30;99.90;;;;;;5011403;28;20310;-68
2022/03/22 05:11:22;;;;;;;21.07;16.53;;;3.20;99.90;;;;;;5006029;28;20639;-69
2022/03/22 05:13:48;;;;;;;25.40;14.73;;;3.20;99.90;;;;;;5008660;28;20985;-69
2022/03/22 05:16:14;;;;;;;20.83;15.90;;;3.20;99.90;;;;;;5012606;28;20434;-68
2022/03/22 05:18:40;;;;;;;21.90;16.27;;;3.20;99.90;;;;;;5012190;28;20430;-68
2022/03/22 05:21:07;;;;;;;22.13;17.87;;;3.20;99.90;;;;;;5010127;28;20441;-69
2022/03/22 05:23:36;;;;;;;19.73;15.93;;;3.20;99.90;;;;;;5010373;28;20437;-68
2022/03/22 05:26:03;;;;;;;19.87;16.30;;;3.10;99.90;;;;;;5007026;28;20445;-68
2022/03/22 05:28:29;;;;;;;22.73;16.30;;;3.00;99.90;;;;;;5002850;28;20644;-69
2022/03/22 05:30:54;;;;;;;22.47;15.93;;;3.00;99.90;;;;;;5004935;28;20895;-67
2022/03/22 05:33:20;;;;;;;17.80;15.33;;;3.00;99.90;;;;;;5004312;28;20214;-67
2022/03/22 05:35:46;;;;;;;22.23;16.73;;;3.10;99.90;;;;;;5009369;28;20179;-68
2022/03/22 05:38:12;;;;;;;21.53;14.60;;;3.00;99.90;;;;;;5003977;28;20191;-66
2022/03/22 05:40:39;;;;;;;23.50;15.33;;;3.10;99.90;;;;;;5010032;28;20191;-65
2022/03/22 05:43:05;;;;;;;19.10;15.20;;;3.10;99.90;;;;;;5003988;28;20187;-68
2022/03/22 05:45:31;;;;;;;20.63;14.20;;;3.10;99.90;;;;;;5011656;28;20436;-68
2022/03/22 05:48:00;;;;;;;20.80;15.27;;;3.20;99.90;;;;;;5010843;28;20437;-69
2022/03/22 05:50:26;;;;;;;20.33;15.23;;;3.30;99.90;;;;;;5009785;28;20203;-68
2022/03/22 05:52:52;;;;;;;21.27;16.73;;;3.30;99.90;;;;;;5009432;28;20466;-68
2022/03/22 05:55:18;;;;;;;19.77;16.10;;;3.40;99.90;;;;;;5007228;28;20445;-68
2022/03/22 05:57:43;;;;;;;22.90;17.50;;;3.60;99.90;;;;;;5011513;28;20548;-68
2022/03/22 06:00:11;;;;;;;21.00;15.33;;;3.70;99.90;;;;;;5001654;28;20198;-68
2022/03/22 06:02:38;;;;;;;27.37;16.47;;;3.80;99.90;;;;;;5006511;28;20194;-68
2022/03/22 06:05:08;;;;;;;20.20;15.07;;;3.90;99.90;;;;;;5003869;28;20444;-68
2022/03/22 06:07:38;;;;;;;20.40;16.47;;;4.00;99.90;;;;;;5008428;28;20474;-69
2022/03/22 06:10:05;;;;;;;22.87;16.13;;;4.10;99.90;;;;;;5002537;28;20466;-69
2022/03/22 06:12:39;;;;;;;21.90;16.07;;;4.10;99.90;;;;;;5003228;28;20457;-68
2022/03/22 06:15:15;;;;;;;22.13;15.70;;;4.20;99.90;;;;;;5010417;28;20521;-68
2022/03/22 06:17:45;;;;;;;27.40;16.30;;;4.30;99.90;;;;;;5011896;28;20437;-69
2022/03/22 06:20:11;;;;;;;25.03;17.00;;;4.40;99.90;;;;;;5006162;28;20493;-69
2022/03/22 06:22:37;;;;;;;26.63;15.80;;;4.60;99.90;;;;;;5010853;28;20524;-68
2022/03/22 06:25:03;;;;;;;25.17;17.60;;;4.70;99.90;;;;;;5009190;28;20525;-69
2022/03/22 06:27:28;;;;;;;27.03;16.60;;;4.90;99.90;;;;;;5009103;28;20179;-67
2022/03/22 06:29:54;;;;;;;18.70;15.70;;;5.10;99.90;;;;;;4997145;28;20529;-69
2022/03/22 06:32:20;;;;;;;26.73;17.30;;;5.40;99.90;;;;;;5008245;28;20605;-68
2022/03/22 06:34:47;;;;;;;25.53;14.97;;;5.50;99.90;;;;;;5007410;28;20183;-68
2022/03/22 06:37:13;;;;;;;23.60;16.70;;;5.60;99.90;;;;;;5009502;28;20185;-69
2022/03/22 06:39:39;;;;;;;22.00;16.53;;;5.80;99.90;;;;;;4992439;28;20829;-70
2022/03/22 06:42:05;;;;;;;22.07;15.70;;;6.00;99.90;;;;;;5010896;28;20433;-70
2022/03/22 06:44:31;;;;;;;26.23;17.80;;;6.20;99.90;;;;;;5011614;28;20167;-70
2022/03/22 06:46:56;;;;;;;27.30;17.17;;;6.30;99.90;;;;;;5011138;28;20491;-70
2022/03/22 06:49:23;;;;;;;25.00;17.90;;;6.40;99.90;;;;;;5011813;28;20787;-69
2022/03/22 06:51:49;;;;;;;23.00;17.30;;;6.60;99.90;;;;;;5011048;28;20635;-70
2022/03/22 06:54:15;;;;;;;26.50;16.70;;;6.70;99.90;;;;;;5005433;28;20976;-67
2022/03/22 06:56:41;;;;;;;20.37;16.23;;;6.90;99.90;;;;;;5009302;28;20532;-68
2022/03/22 06:59:06;;;;;;;25.70;18.60;;;7.00;99.00;;;;;;4996035;28;20614;-69
2022/03/22 07:01:32;;;;;;;22.80;16.40;;;7.20;98.20;;;;;;5014342;28;20183;-69
2022/03/22 07:03:57;;;;;;;21.03;16.40;;;7.40;97.10;;;;;;5007772;28;20217;-69
2022/03/22 07:06:23;;;;;;;26.77;17.80;;;7.60;96.80;;;;;;5004127;28;20179;-69
2022/03/22 07:08:49;;;;;;;21.83;16.87;;;7.80;96.70;;;;;;4992910;28;20206;-69
2022/03/22 07:13:58;;;;;;;21.70;17.03;;;8.30;94.60;;;;;;5004986;28;20234;-69
2022/03/22 07:16:27;;;;;;;22.40;17.20;;;8.40;92.40;;;;;;5006040;28;20721;-69
2022/03/22 07:18:53;;;;;;;21.03;16.77;;;8.50;92.30;;;;;;4988753;28;20206;-66
2022/03/22 07:21:19;;;;;;;19.07;16.97;;;8.80;91.90;;;;;;4978895;28;21078;-68
2022/03/22 07:23:44;;;;;;;23.30;17.27;;;9.00;91.40;;;;;;5008415;28;20201;-69
2022/03/22 07:26:10;;;;;;;24.30;17.70;;;9.20;91.00;;;;;;5008800;28;20906;-69
2022/03/22 07:28:35;;;;;;;21.60;16.93;;;9.40;90.60;;;;;;5007041;28;20189;-69
2022/03/22 07:31:01;;;;;;;22.30;16.97;;;9.40;90.00;;;;;;4995392;28;20187;-70
2022/03/22 07:33:27;;;;;;;20.67;17.17;;;9.40;89.10;;;;;;5013277;28;20665;-68
2022/03/22 07:35:53;;;;;;;22.93;18.97;;;9.60;88.40;;;;;;5013409;28;20440;-66
2022/03/22 07:38:18;;;;;;;23.13;19.20;;;9.90;87.20;;;;;;5005127;28;20241;-70
2022/03/22 07:40:44;;;;;;;22.40;18.00;;;10.10;84.50;;;;;;5006691;28;20199;-69
2022/03/22 07:43:09;;;;;;;21.23;17.20;;;10.30;83.60;;;;;;5014266;28;20607;-69
2022/03/22 07:45:36;;;;;;;24.40;17.57;;;10.50;82.00;;;;;;5014874;28;20174;-69
2022/03/22 07:48:03;;;;;;;20.90;18.30;;;10.70;81.10;;;;;;5013138;28;20167;-66
2022/03/22 07:53:13;;;;;;;19.53;17.57;;;10.10;80.60;;;;;;5014544;28;20461;-69
2022/03/22 07:55:40;;;;;;;19.93;17.83;;;10.20;80.80;;;;;;5014703;28;20457;-69
2022/03/22 07:58:07;;;;;;;27.00;20.47;;;10.30;81.00;;;;;;5012432;28;20188;-65
2022/03/22 08:00:38;;;;;;;29.03;18.90;;;10.40;81.80;;;;;;5012858;28;20488;-67
2022/03/22 08:03:08;;;;;;;23.70;19.00;;;10.70;81.30;;;;;;5014462;28;20418;-69
2022/03/22 08:05:35;;;;;;;24.67;17.33;;;10.90;80.20;;;;;;5014697;28;20418;-69
2022/03/22 08:08:01;;;;;;;26.80;18.97;;;11.30;80.50;;;;;;5012572;28;20421;-67
2022/03/22 08:10:27;;;;;;;20.17;17.93;;;11.30;78.50;;;;;;5011866;28;20450;-69
2022/03/22 08:12:54;;;;;;;21.70;18.80;;;11.50;78.90;;;;;;5014292;28;20937;-69
2022/03/22 08:15:19;;;;;;;26.07;19.50;;;11.20;75.60;;;;;;5014114;28;21060;-69
2022/03/22 08:17:45;;;;;;;33.67;23.87;;;11.40;77.00;;;;;;5014356;28;20413;-69
2022/03/22 08:20:12;;;;;;;28.93;22.07;;;11.40;77.70;;;;;;5010067;28;20223;-68
2022/03/22 08:22:59;;;;;;;20.33;18.20;;;11.30;76.20;;;;;;5014158;28;20425;-69
2022/03/22 08:25:29;;;;;;;28.70;20.00;;;11.40;75.80;;;;;;5014058;28;20456;-70
2022/03/22 08:27:57;;;;;;;24.77;20.07;;;11.90;75.00;;;;;;5013895;28;20457;-68
2022/03/22 08:30:23;;;;;;;29.33;18.90;;;12.30;74.70;;;;;;5010481;28;20452;-69
2022/03/22 08:32:55;;;;;;;22.70;20.00;;;12.90;72.10;;;;;;5013988;28;20794;-69
2022/03/22 08:35:23;;;;;;;30.80;22.40;;;13.10;70.80;;;;;;5013796;28;20418;-69
2022/03/22 08:37:49;;;;;;;24.37;21.57;;;13.50;69.30;;;;;;5013649;28;20572;-69
2022/03/22 08:40:16;;;;;;;25.97;23.23;;;13.80;67.50;;;;;;5009565;28;20969;-69
2022/03/22 08:42:45;;;;;;;36.83;27.83;;;14.00;66.00;;;;;;5013775;28;20445;-69
2022/03/22 08:45:13;;;;;;;31.60;23.13;;;14.20;65.80;;;;;;5013830;28;20456;-70
2022/03/22 08:47:40;;;;;;;29.93;23.83;;;14.80;63.50;;;;;;5013583;28;20456;-69
2022/03/22 08:50:10;;;;;;;26.80;23.97;;;15.20;62.20;;;;;;5009481;28;21028;-71
2022/03/22 08:52:37;;;;;;;28.20;21.27;;;15.60;59.80;;;;;;5013324;28;20477;-70
2022/03/22 08:55:04;;;;;;;25.30;22.60;;;15.60;59.20;;;;;;5013472;28;20422;-71
2022/03/22 08:57:29;;;;;;;24.83;22.17;;;15.90;58.30;;;;;;5013218;28;20453;-70
2022/03/22 08:59:55;;;;;;;24.47;20.37;;;16.50;57.20;;;;;;5009199;28;20446;-70
2022/03/22 09:02:20;;;;;;;21.73;19.43;;;16.70;55.60;;;;;;5013249;28;20548;-70
2022/03/22 09:07:30;;;;;;;28.03;25.17;;;17.00;54.70;;;;;;5013013;28;20198;-71
2022/03/22 09:09:55;;;;;;;22.63;20.30;;;17.40;53.60;;;;;;4988255;28;20442;-71
2022/03/22 09:12:21;;;;;;;22.33;19.87;;;17.90;52.50;;;;;;4993408;28;20206;-69
2022/03/22 09:14:46;;;;;;;22.30;20.40;;;18.00;51.70;;;;;;4999744;28;20228;-70
2022/03/22 09:17:13;;;;;;;28.80;23.40;;;18.70;50.30;;;;;;5009552;28;20181;-70
2022/03/22 09:19:39;;;;;;;23.03;20.80;;;19.10;48.70;;;;;;5004330;28;20242;-70
2022/03/22 09:22:05;;;;;;;25.30;22.80;;;19.40;48.60;;;;;;5009949;28;20417;-70
2022/03/22 09:24:36;;;;;;;23.60;21.43;;;19.90;48.00;;;;;;5010205;28;20422;-71
2022/03/22 09:27:03;;;;;;;23.10;20.73;;;19.90;46.80;;;;;;5009843;28;20944;-70
2022/03/22 09:29:28;;;;;;;22.57;20.40;;;20.60;46.30;;;;;;5003189;28;20454;-70
2022/03/22 09:31:55;;;;;;;23.10;21.00;;;22.00;43.80;;;;;;5009811;28;20552;-70
2022/03/22 09:34:22;;;;;;;21.43;19.50;;;22.20;40.80;;;;;;5009490;28;20229;-68
2022/03/22 09:36:47;;;;;;;22.87;20.73;;;22.60;39.80;;;;;;5009625;28;20422;-69
2022/03/22 09:39:13;;;;;;;24.07;21.37;;;22.90;39.40;;;;;;5000896;28;20461;-69
2022/03/22 09:41:39;;;;;;;22.90;20.70;;;23.00;38.80;;;;;;5009730;28;20174;-69
2022/03/22 09:44:05;;;;;;;20.80;18.73;;;23.50;38.30;;;;;;5009623;28;20221;-71
2022/03/22 09:46:35;;;;;;;24.37;22.27;;;24.50;37.40;;;;;;5009830;28;20433;-70
2022/03/22 09:49:01;;;;;;;27.10;23.03;;;25.00;36.30;;;;;;4980389;28;20203;-68
2022/03/22 09:51:45;;;;;;;23.60;21.50;;;24.10;35.30;;;;;;5010011;28;20456;-68
2022/03/22 09:54:12;;;;;;;24.47;22.27;;;25.00;35.70;;;;;;5009684;28;20215;-68
2022/03/22 09:56:42;;;;;;;21.97;20.10;;;25.80;34.40;;;;;;5009230;28;20437;-68
2022/03/22 09:59:08;;;;;;;21.70;19.90;;;26.30;34.00;;;;;;5001341;28;20449;-68
2022/03/22 10:01:34;;;;;;;22.67;20.57;;;26.80;32.70;;;;;;5008955;28;20425;-68
2022/03/22 10:04:05;;;;;;;21.53;19.77;;;26.60;31.80;;;;;;5009202;28;20430;-68
2022/03/22 10:06:32;;;;;;;23.17;20.97;;;26.90;31.80;;;;;;5009618;28;20437;-67
2022/03/22 10:08:58;;;;;;;21.47;19.50;;;27.80;31.20;;;;;;5003582;28;22389;-68
2022/03/22 10:11:41;;;;;;;20.77;19.17;;;27.20;30.60;;;;;;5011507;28;20422;-68
2022/03/22 10:14:09;;;;;;;22.27;20.43;;;26.10;31.60;;;;;;5012100;28;20966;-68
2022/03/22 10:16:51;;;;;;;23.57;21.57;;;27.20;31.30;;;;;;5012125;28;20434;-70
2022/03/22 10:19:21;;;;;;;23.27;21.00;;;28.40;30.40;;;;;;5004392;28;20968;-69
2022/03/22 10:21:47;;;;;;;22.67;20.77;;;29.20;29.80;;;;;;5012108;28;20412;-70
2022/03/22 10:24:15;;;;;;;22.50;20.57;;;29.30;29.20;;;;;;5011981;28;20454;-69
2022/03/22 10:26:44;;;;;;;24.10;21.80;;;29.10;29.10;;;;;;5012200;28;20659;-70
2022/03/22 10:29:11;;;;;;;22.90;20.80;;;29.00;29.00;;;;;;5004016;28;20445;-70
2022/03/22 10:31:40;;;;;;;24.03;22.03;;;28.30;29.30;;;;;;5012077;28;20428;-70
2022/03/22 10:34:08;;;;;;;21.77;19.83;;;28.00;29.40;;;;;;5011932;28;21146;-69
2022/03/22 10:36:38;;;;;;;23.37;21.30;;;28.80;29.20;;;;;;5012078;28;20425;-69
2022/03/22 10:39:07;;;;;;;22.23;20.50;;;28.70;29.20;;;;;;5004248;28;20457;-69
2022/03/22 10:41:37;;;;;;;23.50;21.60;;;27.90;28.70;;;;;;5011206;28;20465;-70
2022/03/22 10:44:05;;;;;;;23.70;21.80;;;29.30;28.70;;;;;;5011854;28;20815;-69
2022/03/22 10:46:31;;;;;;;23.13;21.30;;;29.40;28.40;;;;;;5011968;28;20430;-69
2022/03/22 10:49:09;;;;;;;24.13;21.77;;;29.70;28.60;;;;;;5006539;28;20446;-67
2022/03/22 10:51:48;;;;;;;24.60;22.60;;;30.80;27.90;;;;;;5011905;28;21016;-67
2022/03/22 10:54:19;;;;;;;24.77;22.60;;;31.60;27.50;;;;;;5011787;28;20425;-69
2022/03/22 10:56:50;;;;;;;23.63;21.50;;;31.60;27.30;;;;;;5011789;28;20447;-69
2022/03/22 10:59:19;;;;;;;24.13;22.27;;;32.40;27.20;;;;;;5006475;28;21136;-67
2022/03/22 11:01:45;;;;;;;24.07;21.73;;;31.80;26.00;;;;;;5014039;28;20480;-70
2022/03/22 11:04:15;;;;;;;23.50;21.53;;;31.20;26.90;;;;;;5015412;28;20454;-71
2022/03/22 11:06:41;;;;;;;22.33;20.50;;;31.80;26.70;;;;;;5015685;28;20442;-70
2022/03/22 11:09:08;;;;;;;22.30;20.47;;;32.00;26.50;;;;;;5010016;28;20964;-69
2022/03/22 11:11:37;;;;;;;23.90;22.00;;;32.20;26.30;;;;;;5015783;28;20434;-70
2022/03/22 11:14:03;;;;;;;24.30;22.23;;;31.20;26.60;;;;;;5015489;28;20414;-68
2022/03/22 11:16:32;;;;;;;22.40;20.77;;;29.80;26.90;;;;;;5015134;28;20418;-68
2022/03/22 11:19:02;;;;;;;22.97;21.17;;;30.90;26.80;;;;;;5009313;28;20889;-69
2022/03/22 11:21:28;;;;;;;21.97;20.03;;;31.00;26.60;;;;;;5012218;28;20429;-68
2022/03/22 11:24:07;;;;;;;22.83;20.70;;;31.50;26.20;;;;;;5014815;28;20454;-68
2022/03/22 11:26:51;;;;;;;23.50;21.50;;;32.10;25.80;;;;;;5012860;28;20429;-68
2022/03/22 11:29:17;;;;;;;22.47;20.27;;;32.20;25.60;;;;;;4995663;28;21189;-68
2022/03/22 11:34:08;;;;;;;21.87;20.17;;;32.70;25.20;;;;;;5010894;28;20464;-66
2022/03/22 11:34:29;;;;;;;23.33;21.47;;;32.50;25.10;;;;;;5012143;28;20437;-66
2022/03/22 11:36:58;;;;;;;21.27;19.63;;;32.10;25.20;;;;;;5011655;28;20529;-66
2022/03/22 11:42:19;;;;;;;24.17;22.27;;;33.20;24.90;;;;;;5011805;28;20484;-69
2022/03/22 11:44:56;;;;;;;24.63;22.53;;;33.90;24.50;;;;;;5011894;28;20534;-68
2022/03/22 11:47:22;;;;;;;23.97;22.00;;;34.00;24.70;;;;;;5011538;28;20471;-68
2022/03/22 11:50:04;;;;;;;23.97;21.93;;;33.50;24.50;;;;;;5006176;28;20444;-68
2022/03/22 11:52:42;;;;;;;24.30;22.30;;;34.00;24.60;;;;;;5011438;28;20452;-68
2022/03/22 11:55:07;;;;;;;24.73;22.23;;;34.60;24.30;;;;;;5011590;28;20425;-69
2022/03/22 11:57:45;;;;;;;24.80;22.67;;;34.60;24.30;;;;;;5011493;28;20453;-68
2022/03/22 12:00:12;;;;;;;24.23;22.20;;;34.20;24.30;;;;;;5006407;28;20285;-68
2022/03/22 12:02:40;;;;;;;22.50;20.60;;;33.80;24.40;;;;;;4993615;28;20457;-68
2022/03/22 12:05:06;;;;;;;25.83;23.50;;;33.50;24.60;;;;;;5011618;28;20434;-68
2022/03/22 12:07:34;;;;;;;23.17;21.27;;;33.30;24.50;;;;;;5011596;28;20919;-68
2022/03/22 12:10:04;;;;;;;23.93;21.50;;;32.30;24.60;;;;;;5007218;28;20449;-68
2022/03/22 12:12:32;;;;;;;24.10;22.27;;;32.20;24.80;;;;;;5013468;28;20463;-68
2022/03/22 12:15:00;;;;;;;23.50;21.50;;;31.90;24.80;;;;;;5014525;28;20472;-68
2022/03/22 12:17:26;;;;;;;24.30;22.20;;;32.00;24.90;;;;;;5014178;28;20426;-68
2022/03/22 12:19:52;;;;;;;24.43;21.80;;;31.90;24.90;;;;;;5008650;28;20433;-68
2022/03/22 12:22:21;;;;;;;24.33;22.43;;;32.10;24.60;;;;;;5014280;28;20417;-68
2022/03/22 12:24:49;;;;;;;22.33;20.37;;;32.50;24.80;;;;;;5014048;28;20176;-68
2022/03/22 12:27:16;;;;;;;24.23;22.33;;;34.10;24.20;;;;;;5014096;28;20429;-68
2022/03/22 12:29:43;;;;;;;22.43;20.73;;;34.60;23.70;;;;;;5008409;28;20442;-68
2022/03/22 12:32:17;;;;;;;23.53;21.63;;;34.20;23.70;;;;;;5014195;28;20414;-68
2022/03/22 12:34:45;;;;;;;24.03;22.10;;;34.10;23.70;;;;;;5014059;28;20413;-68
2022/03/22 12:37:12;;;;;;;22.90;20.80;;;34.70;23.30;;;;;;5013822;28;20430;-68
2022/03/22 12:39:41;;;;;;;23.00;20.93;;;36.10;22.80;;;;;;5008458;28;21050;-68
2022/03/22 12:42:07;;;;;;;20.47;18.57;;;36.70;22.30;;;;;;5013592;28;20428;-67
2022/03/22 12:44:34;;;;;;;21.07;19.27;;;35.40;22.00;;;;;;5013585;28;20829;-67
2022/03/22 12:47:00;;;;;;;21.37;19.37;;;36.40;22.20;;;;;;5013745;28;20445;-68
2022/03/22 12:49:27;;;;;;;22.67;20.90;;;35.70;22.10;;;;;;5008254;28;20508;-68
2022/03/22 12:51:53;;;;;;;22.27;20.53;;;35.10;22.10;;;;;;5013643;28;20417;-68
2022/03/22 12:54:18;;;;;;;22.50;20.70;;;35.20;22.50;;;;;;5013589;28;20429;-68
2022/03/22 12:56:47;;;;;;;20.47;18.87;;;36.00;22.30;;;;;;4995847;28;20209;-68
2022/03/22 12:59:23;;;;;;;21.33;19.60;;;37.20;21.50;;;;;;5008160;28;20245;-68
2022/03/22 13:01:57;;;;;;;20.13;18.37;;;37.20;21.40;;;;;;5013375;28;20426;-67
2022/03/22 13:04:26;;;;;;;20.53;18.73;;;36.90;21.20;;;;;;5013430;28;20468;-67